This is the latest recevied weather packets stored in our database for station/object WX5KDM. If no packets are shown the sender has not sent any weather packets the latest 1 day(s).
| Time | Temp. | Humidity | Pressure | Rain* | Wind** | Luminosity | Snow |
|---|---|---|---|---|---|---|---|
| 1777986224 | 17.78° C | 77% | 1013.1 hPa | 0 mm | 0.45 m/s, 180° | - | - |
| 1777985921 | 16.67° C | 78% | 1013.2 hPa | 0 mm | 0 m/s | - | - |
| 1777985619 | 16.67° C | 79% | 1013.4 hPa | 0 mm | 0.45 m/s, 180° | - | - |
| 1777985315 | 16.67° C | 79% | 1013 hPa | 0 mm | 0.89 m/s, 180° | - | - |
| 1777985012 | 16.67° C | 78% | 1013.1 hPa | 0 mm | 0.45 m/s, 119° | - | - |
| 1777984708 | 16.67° C | 78% | 1013.1 hPa | 0 mm | 0.45 m/s, 119° | - | - |
| 1777984405 | 17.22° C | 77% | 1012.7 hPa | 0 mm | 0.45 m/s, 119° | - | - |
| 1777984101 | 17.22° C | 76% | 1012.7 hPa | 0 mm | 0.45 m/s, 119° | - | - |
| 1777983798 | 17.22° C | 76% | 1012.7 hPa | 0 mm | 0 m/s | - | - |
| 1777983495 | 16.67° C | 77% | 1012.9 hPa | 0 mm | 0.45 m/s, 119° | - | - |
| 1777983192 | 16.11° C | 78% | 1012.8 hPa | 0 mm | 0.89 m/s, 119° | - | - |
| 1777982888 | 16.11° C | 79% | 1012.7 hPa | 0 mm | 0 m/s | - | - |
| 1777982584 | 16.11° C | 80% | 1012.7 hPa | 0 mm | 0.45 m/s, 119° | - | - |
| 1777982282 | 15.56° C | 81% | 1012.5 hPa | 0 mm | 0 m/s | - | - |
| 1777981980 | 15.56° C | 80% | 1012.3 hPa | 0 mm | 0 m/s | - | - |
| 1777981677 | 15.56° C | 80% | 1012.3 hPa | 0 mm | 0.45 m/s, 119° | - | - |
| 1777981374 | 15.56° C | 80% | 1012.2 hPa | 0 mm | 0 m/s | - | - |
| 1777981070 | 15° C | 80% | 1012.1 hPa | 0 mm | 0 m/s | - | - |
| 1777980767 | 15° C | 81% | 1012.2 hPa | 0 mm | 0 m/s | - | - |
| 1777980463 | 15° C | 81% | 1012 hPa | 0 mm | 0 m/s | - | - |
| 1777980161 | 14.44° C | 82% | 1012 hPa | 0 mm | 0.45 m/s, 150° | - | - |
| 1777979860 | 14.44° C | 82% | 1012 hPa | 0 mm | 0.45 m/s, 150° | - | - |
| 1777979556 | 14.44° C | 82% | 1012 hPa | 0 mm | 0 m/s | - | - |
| 1777979252 | 14.44° C | 82% | 1011.9 hPa | 0 mm | 0 m/s | - | - |
| 1777978951 | 14.44° C | 82% | 1011.9 hPa | 0 mm | 0 m/s | - | - |
* Rain latest hour (hover to see other rain measurements)
** Current wind speed in m/s (hover to see current wind gust speed)